This is the latest recevied weather packets stored in our database for station/object AD7ZD. If no packets are shown the sender has not sent any weather packets the latest 1 day(s).
| Time | Temp. | Humidity | Pressure | Rain* | Wind** | Luminosity | Snow |
|---|---|---|---|---|---|---|---|
| 1778036563 | 16.67° C | 47% | 1010.1 hPa | 0 mm | - | 0 W/m² | - |
| 1778035956 | 16.67° C | 47% | 1010.1 hPa | 0 mm | - | 0 W/m² | - |
| 1778035653 | 16.67° C | 47% | 1010.2 hPa | 0 mm | - | 1 W/m² | - |
| 1778035045 | 17.22° C | 46% | 1010.2 hPa | 0 mm | - | 12 W/m² | - |
| 1778034743 | 17.22° C | 45% | 1010.2 hPa | 0 mm | - | 16 W/m² | - |
| 1778034439 | 17.22° C | 44% | 1010.1 hPa | 0 mm | - | 22 W/m² | - |
| 1778034138 | 17.78° C | 44% | 1010 hPa | 0 mm | - | 26 W/m² | - |
| 1778033532 | 17.78° C | 43% | 1010 hPa | 0 mm | - | 35 W/m² | - |
| 1778033229 | 17.78° C | 43% | 1009.7 hPa | 0 mm | - | 39 W/m² | - |
| 1778032927 | 18.33° C | 43% | 1009.8 hPa | 0 mm | - | 48 W/m² | - |
| 1778032624 | 18.33° C | 42% | 1009.7 hPa | 0 mm | - | 73 W/m² | - |
| 1778031714 | 18.33° C | 42% | 1009.7 hPa | 0 mm | - | 116 W/m² | - |
| 1778031412 | 18.33° C | 42% | 1010.1 hPa | 0 mm | - | 133 W/m² | - |
| 1778031109 | 18.89° C | 42% | 1010 hPa | 0 mm | - | 149 W/m² | - |
| 1778030805 | 18.89° C | 41% | 1009.7 hPa | 0 mm | - | 158 W/m² | - |
| 1778030502 | 18.89° C | 43% | 1009.8 hPa | 0 mm | - | 171 W/m² | - |
| 1778030200 | 18.33° C | 41% | 1009.8 hPa | 0 mm | - | 190 W/m² | - |
| 1778029595 | 18.89° C | 42% | 1010 hPa | 0 mm | - | 241 W/m² | - |
| 1778028988 | 18.89° C | 42% | 1009.8 hPa | 0 mm | - | 265 W/m² | - |
| 1778027775 | 18.89° C | 42% | 1009.8 hPa | 0 mm | - | 265 W/m² | - |
| 1778027471 | 18.89° C | 42% | 1010 hPa | 0 mm | - | 324 W/m² | - |
| 1778027167 | 18.89° C | 42% | 1009.7 hPa | 0 mm | - | 360 W/m² | - |
| 1778025954 | 18.33° C | 44% | 1009.8 hPa | 0 mm | - | 389 W/m² | - |
| 1778025046 | 17.78° C | 45% | 1010.2 hPa | 0 mm | - | 387 W/m² | - |
| 1778018380 | 16.11° C | 52% | 1010.9 hPa | 0 mm | - | 543 W/m² | - |
* Rain latest hour (hover to see other rain measurements)
** Current wind speed in m/s (hover to see current wind gust speed)